createdAt,value
2022-11-24T00:02:35.616Z,2.00
2022-11-24T00:07:02.629Z,1.90
2022-11-24T00:11:09.731Z,1.90
2022-11-24T00:15:27.289Z,1.90
2022-11-24T00:19:29.252Z,1.80
2022-11-24T00:23:31.136Z,1.80
2022-11-24T00:27:33.060Z,1.70
2022-11-24T00:31:40.100Z,1.70
2022-11-24T00:35:42.004Z,1.60
2022-11-24T00:39:43.991Z,1.60
2022-11-24T00:43:45.872Z,1.60
2022-11-24T00:47:52.032Z,1.60
2022-11-24T00:51:56.972Z,1.50
2022-11-24T00:56:03.933Z,1.60
2022-11-24T01:00:06.843Z,1.50
2022-11-24T01:04:08.946Z,1.50
2022-11-24T01:08:11.136Z,1.50
2022-11-24T01:12:13.004Z,1.50
2022-11-24T01:16:41.224Z,1.50
2022-11-24T01:20:43.171Z,1.50
2022-11-24T01:24:45.837Z,1.50
2022-11-24T01:28:48.128Z,1.40
2022-11-24T01:32:50.192Z,1.40
2022-11-24T01:36:52.066Z,1.30
2022-11-24T01:41:13.388Z,1.30
2022-11-24T01:45:45.818Z,1.30
2022-11-24T01:49:53.692Z,1.30
2022-11-24T01:54:03.095Z,1.30
2022-11-24T01:58:15.917Z,1.30
2022-11-24T02:02:18.182Z,1.20
2022-11-24T02:06:27.174Z,1.30
2022-11-24T02:10:29.053Z,1.30
2022-11-24T02:14:31.073Z,1.20
2022-11-24T02:18:33.051Z,1.20
2022-11-24T02:22:44.843Z,1.20
2022-11-24T02:26:50.055Z,1.20
2022-11-24T02:30:52.251Z,1.20
2022-11-24T02:35:02.641Z,1.30
2022-11-24T02:39:15.028Z,1.20
2022-11-24T02:43:20.933Z,1.20
2022-11-24T02:47:23.162Z,1.10
2022-11-24T02:51:25.067Z,1.10
2022-11-24T02:55:26.886Z,1.10
2022-11-24T02:59:28.759Z,1.10
2022-11-24T03:03:37.135Z,1.10
2022-11-24T03:07:45.885Z,1.10
2022-11-24T03:11:54.142Z,1.10
2022-11-24T03:16:02.159Z,1.20
2022-11-24T03:20:11.121Z,1.20
2022-11-24T03:24:13.011Z,1.10
2022-11-24T03:28:14.999Z,1.10
2022-11-24T03:32:17.017Z,1.10
2022-11-24T03:36:19.136Z,1.10
2022-11-24T03:40:21.081Z,1.10
2022-11-24T03:44:23.758Z,1.10
2022-11-24T03:48:25.968Z,1.10
2022-11-24T03:52:27.785Z,1.00
2022-11-24T03:56:30.825Z,1.10
2022-11-24T04:00:35.100Z,1.00
2022-11-24T04:04:37.164Z,1.00
2022-11-24T04:08:39.060Z,1.00
2022-11-24T04:12:43.959Z,1.00
2022-11-24T04:16:45.803Z,1.00
2022-11-24T04:20:50.485Z,1.00
2022-11-24T04:24:52.352Z,1.10
2022-11-24T04:28:54.216Z,1.10
2022-11-24T04:32:57.058Z,1.20
2022-11-24T04:36:58.994Z,1.20
2022-11-24T04:41:04.136Z,1.20
2022-11-24T04:45:07.261Z,1.20
2022-11-24T04:49:11.968Z,1.30
2022-11-24T04:53:15.312Z,1.40
2022-11-24T04:57:22.205Z,1.50
2022-11-24T05:01:26.719Z,1.60
2022-11-24T05:05:28.769Z,1.80
2022-11-24T05:09:48.223Z,1.90
2022-11-24T05:13:56.393Z,2.00
2022-11-24T05:17:58.496Z,2.00
2022-11-24T05:22:00.377Z,2.10
2022-11-24T05:26:02.503Z,2.20
2022-11-24T05:30:05.279Z,2.20
2022-11-24T05:34:07.410Z,2.30
2022-11-24T05:38:09.432Z,2.20
2022-11-24T05:42:49.887Z,2.20
2022-11-24T05:46:51.869Z,2.30
2022-11-24T05:50:56.295Z,2.30
2022-11-24T05:54:58.236Z,2.30
2022-11-24T05:59:01.496Z,2.30
2022-11-24T06:03:08.950Z,2.20
2022-11-24T06:07:12.067Z,2.20
2022-11-24T06:11:20.130Z,2.20
2022-11-24T06:15:29.550Z,2.20
2022-11-24T06:20:32.684Z,2.20
2022-11-24T06:24:35.681Z,2.20
2022-11-24T06:28:37.898Z,2.30
2022-11-24T06:32:49.086Z,2.40
2022-11-24T06:36:52.367Z,2.40
2022-11-24T06:41:08.954Z,2.50
2022-11-24T06:45:11.226Z,2.60
2022-11-24T06:49:13.289Z,2.60
2022-11-24T06:53:15.566Z,2.80
2022-11-24T07:37:29.651Z,3.40
2022-11-24T07:41:33.098Z,3.50
2022-11-24T07:45:35.159Z,3.50
2022-11-24T07:49:37.164Z,3.60
2022-11-24T07:53:39.190Z,3.70
2022-11-24T07:57:41.242Z,3.80
2022-11-24T08:01:43.261Z,4.00
2022-11-24T08:06:22.181Z,4.00
2022-11-24T08:10:16.955Z,4.10
2022-11-24T08:14:18.857Z,4.20
2022-11-24T08:19:21.285Z,4.30
2022-11-24T08:24:19.857Z,4.40
2022-11-24T08:28:52.118Z,4.50
2022-11-24T08:55:12.126Z,4.90
2022-11-24T08:59:14.585Z,4.90
2022-11-24T09:03:16.550Z,4.90
2022-11-24T09:12:25.287Z,4.90
2022-11-24T09:37:56.516Z,5.00
2022-11-24T09:42:12.855Z,5.00
2022-11-24T10:55:22.442Z,5.90
2022-11-24T11:01:07.435Z,6.00
2022-11-24T13:47:03.304Z,7.80
2022-11-24T13:58:51.273Z,7.80
2022-11-24T14:03:15.166Z,7.70
2022-11-24T14:08:10.011Z,7.60
2022-11-24T14:12:15.951Z,7.60
2022-11-24T14:16:22.466Z,7.60
2022-11-24T14:20:26.693Z,7.50
2022-11-24T14:24:43.962Z,7.60
2022-11-24T14:29:08.942Z,7.50
2022-11-24T14:33:15.924Z,7.30
2022-11-24T14:37:19.386Z,7.30
2022-11-24T14:41:31.696Z,7.30
2022-11-24T14:46:24.484Z,7.40
2022-11-24T14:51:23.092Z,7.30
2022-11-24T14:55:30.160Z,7.30
2022-11-24T14:59:34.820Z,7.30
2022-11-24T15:03:49.427Z,7.20
2022-11-24T15:08:02.914Z,7.30
2022-11-24T15:12:10.129Z,7.30
2022-11-24T15:16:19.248Z,7.40
2022-11-24T15:20:37.462Z,7.40
2022-11-24T15:24:54.033Z,7.40
2022-11-24T15:28:58.593Z,7.40
2022-11-24T15:33:00.444Z,7.40
2022-11-24T15:37:02.370Z,7.40
2022-11-24T15:41:21.880Z,7.20
2022-11-24T15:45:26.303Z,7.20
2022-11-24T15:49:28.246Z,7.30
2022-11-24T15:53:51.726Z,7.30
2022-11-24T15:57:56.068Z,7.30
2022-11-24T16:03:38.229Z,7.30
2022-11-24T16:07:27.581Z,7.30
2022-11-24T16:11:29.759Z,7.20
2022-11-24T16:15:32.892Z,7.10
2022-11-24T16:19:38.736Z,7.10
2022-11-24T16:23:43.824Z,7.10
2022-11-24T16:27:51.848Z,6.90
2022-11-24T16:32:06.512Z,6.90
2022-11-24T16:36:11.144Z,7.00
2022-11-24T16:40:13.475Z,6.90
2022-11-24T16:44:15.342Z,6.80
2022-11-24T16:48:17.386Z,6.70
2022-11-24T16:52:19.486Z,6.70
2022-11-24T16:56:21.383Z,6.70
2022-11-24T17:00:23.680Z,6.70
2022-11-24T17:04:25.690Z,6.70
2022-11-24T17:08:30.820Z,6.80
2022-11-24T17:12:35.322Z,6.80
2022-11-24T17:16:40.486Z,6.80
2022-11-24T17:20:43.617Z,6.70
2022-11-24T17:24:59.217Z,6.80
2022-11-24T17:29:33.442Z,6.90
2022-11-24T17:33:37.545Z,6.90
2022-11-24T17:37:47.604Z,6.90
2022-11-24T17:47:38.324Z,7.00
2022-11-24T17:51:43.237Z,7.10
2022-11-24T17:56:09.740Z,7.10
2022-11-24T18:06:11.863Z,7.10
2022-11-24T18:11:23.573Z,6.90
2022-11-24T18:20:47.947Z,6.80
2022-11-24T18:29:43.067Z,6.70
2022-11-24T18:33:58.197Z,6.60
2022-11-24T18:38:09.058Z,6.50
2022-11-24T18:42:26.170Z,6.50
2022-11-24T18:46:31.435Z,6.50
2022-11-24T18:55:41.127Z,6.60
2022-11-24T18:59:44.439Z,6.60
2022-11-24T19:04:15.550Z,6.60
2022-11-24T19:13:11.976Z,6.70
2022-11-24T19:17:17.126Z,6.80
2022-11-24T19:21:54.529Z,6.90
2022-11-24T19:26:54.513Z,6.90
2022-11-24T19:31:39.826Z,6.90
2022-11-24T19:36:13.409Z,6.90
2022-11-24T19:41:37.320Z,6.90
2022-11-24T19:46:10.445Z,7.00
2022-11-24T19:50:37.636Z,7.00
2022-11-24T19:54:59.814Z,7.00
2022-11-24T19:59:06.446Z,7.00
2022-11-24T20:07:31.966Z,6.80
2022-11-24T20:11:53.865Z,6.80
2022-11-24T20:26:41.399Z,6.80
2022-11-24T20:30:49.856Z,6.90
2022-11-24T20:40:05.469Z,7.10
2022-11-24T20:50:33.571Z,6.80
2022-11-24T20:54:34.318Z,6.70
2022-11-24T20:58:50.179Z,6.70
2022-11-24T21:02:59.982Z,6.70
2022-11-24T21:07:17.889Z,6.70
2022-11-24T21:26:58.879Z,6.90
2022-11-24T21:45:52.452Z,6.70
2022-11-24T21:50:07.799Z,6.80
2022-11-24T21:54:13.402Z,6.90
2022-11-24T21:58:35.472Z,6.90
2022-11-24T22:03:20.044Z,6.90
2022-11-24T22:07:27.450Z,7.00
2022-11-24T22:11:31.937Z,7.00
2022-11-24T22:15:34.357Z,7.10
2022-11-24T22:19:36.284Z,7.10
2022-11-24T22:23:38.446Z,7.10
2022-11-24T22:27:41.778Z,7.20
2022-11-24T22:31:43.912Z,7.20
2022-11-24T22:35:59.352Z,7.20
2022-11-24T22:40:01.315Z,7.30
2022-11-24T22:44:05.784Z,7.30
2022-11-24T22:48:07.706Z,7.20
2022-11-24T22:52:09.637Z,7.30
2022-11-24T22:56:15.137Z,7.30
2022-11-24T23:00:22.820Z,7.30
2022-11-24T23:04:27.253Z,7.40
2022-11-24T23:08:33.445Z,7.40
2022-11-24T23:12:37.366Z,7.40
2022-11-24T23:16:42.113Z,7.40
2022-11-24T23:20:44.611Z,7.30
2022-11-24T23:24:48.887Z,7.30
2022-11-24T23:28:51.121Z,7.30
2022-11-24T23:32:54.209Z,7.20
2022-11-24T23:36:59.850Z,7.20
2022-11-24T23:41:36.731Z,7.10
2022-11-24T23:45:38.715Z,6.90
2022-11-24T23:49:43.137Z,6.80
2022-11-24T23:53:48.242Z,6.80
2022-11-24T23:57:50.148Z,6.80
